sensor_id;sensor_type;location;lat;lon;timestamp;pressure;altitude;pressure_sealevel;temperature;humidity
60427;BME280;46274;47.168;27.604;2023-06-04T00:03:09;100484.41;;;9.26;61.07
60427;BME280;46274;47.168;27.604;2023-06-04T00:09:11;100551.13;;;9.96;59.17
60427;BME280;46274;47.168;27.604;2023-06-04T00:15:14;100549.13;;;9.98;58.45
60427;BME280;46274;47.168;27.604;2023-06-04T00:21:18;100535.91;;;7.98;67.07
60427;BME280;46274;47.168;27.604;2023-06-04T00:27:20;100573.63;;;9.44;62.11
60427;BME280;46274;47.168;27.604;2023-06-04T00:33:22;100540.59;;;9.58;59.95
60427;BME280;46274;47.168;27.604;2023-06-04T00:39:23;100505.38;;;9.50;59.47
60427;BME280;46274;47.168;27.604;2023-06-04T00:45:25;100501.38;;;9.63;59.15
60427;BME280;46274;47.168;27.604;2023-06-04T00:51:30;100593.69;;;10.12;59.83
60427;BME280;46274;47.168;27.604;2023-06-04T00:57:32;100534.78;;;9.71;59.50
60427;BME280;46274;47.168;27.604;2023-06-04T01:03:35;100486.78;;;7.94;67.16
60427;BME280;46274;47.168;27.604;2023-06-04T01:09:39;100597.63;;;9.91;61.09
60427;BME280;46274;47.168;27.604;2023-06-04T01:15:42;100568.91;;;9.46;62.48
60427;BME280;46274;47.168;27.604;2023-06-04T01:21:44;100487.94;;;8.19;65.21
60427;BME280;46274;47.168;27.604;2023-06-04T01:27:51;100607.53;;;7.73;71.69
60427;BME280;46274;47.168;27.604;2023-06-04T01:33:55;100591.31;;;9.38;63.46
60427;BME280;46274;47.168;27.604;2023-06-04T01:40:00;100585.59;;;9.42;62.46
60427;BME280;46274;47.168;27.604;2023-06-04T01:46:02;100549.66;;;9.49;61.19
60427;BME280;46274;47.168;27.604;2023-06-04T01:52:05;100496.28;;;8.71;64.48
60427;BME280;46274;47.168;27.604;2023-06-04T01:58:08;100533.84;;;9.36;62.57
60427;BME280;46274;47.168;27.604;2023-06-04T02:04:10;100492.84;;;9.23;62.12
60427;BME280;46274;47.168;27.604;2023-06-04T02:10:17;100506.75;;;9.10;62.40
60427;BME280;46274;47.168;27.604;2023-06-04T02:16:19;100461.25;;;6.94;73.20
60427;BME280;46274;47.168;27.604;2023-06-04T02:22:21;100561.31;;;8.33;69.39
60427;BME280;46274;47.168;27.604;2023-06-04T02:28:22;100483.50;;;7.63;71.48
60427;BME280;46274;47.168;27.604;2023-06-04T02:34:25;100484.78;;;7.59;71.83
60427;BME280;46274;47.168;27.604;2023-06-04T02:40:30;100589.41;;;9.31;65.90
60427;BME280;46274;47.168;27.604;2023-06-04T02:46:32;100541.97;;;9.18;64.63
60427;BME280;46274;47.168;27.604;2023-06-04T02:52:33;100565.50;;;8.17;70.73
60427;BME280;46274;47.168;27.604;2023-06-04T02:58:49;100612.25;;;8.18;73.77
60427;BME280;46274;47.168;27.604;2023-06-04T03:04:50;100540.16;;;9.01;66.67
60427;BME280;46274;47.168;27.604;2023-06-04T03:10:53;100554.88;;;9.25;65.32
60427;BME280;46274;47.168;27.604;2023-06-04T03:16:54;100497.03;;;8.46;67.51
60427;BME280;46274;47.168;27.604;2023-06-04T03:22:56;100558.34;;;9.35;65.09
60427;BME280;46274;47.168;27.604;2023-06-04T03:28:59;100568.06;;;9.46;64.83
60427;BME280;46274;47.168;27.604;2023-06-04T03:35:01;100568.47;;;9.77;65.09
60427;BME280;46274;47.168;27.604;2023-06-04T03:41:04;100543.81;;;9.88;64.15
60427;BME280;46274;47.168;27.604;2023-06-04T03:47:06;100508.50;;;10.32;63.42
60427;BME280;46274;47.168;27.604;2023-06-04T03:53:09;100471.66;;;10.56;63.07
60427;BME280;46274;47.168;27.604;2023-06-04T03:59:11;100509.81;;;11.52;61.44
60427;BME280;46274;47.168;27.604;2023-06-04T04:05:12;100582.78;;;12.36;61.19
60427;BME280;46274;47.168;27.604;2023-06-04T04:11:17;100544.44;;;12.62;60.21
60427;BME280;46274;47.168;27.604;2023-06-04T04:17:19;100521.63;;;12.40;60.15
60427;BME280;46274;47.168;27.604;2023-06-04T04:23:21;100553.06;;;12.74;60.00
60427;BME280;46274;47.168;27.604;2023-06-04T04:29:23;100598.31;;;14.05;55.68
60427;BME280;46274;47.168;27.604;2023-06-04T04:35:26;100427.59;;;13.52;54.60
60427;BME280;46274;47.168;27.604;2023-06-04T04:41:28;100546.50;;;14.49;53.87
60427;BME280;46274;47.168;27.604;2023-06-04T04:47:29;100578.19;;;15.01;53.09
60427;BME280;46274;47.168;27.604;2023-06-04T04:53:31;100589.53;;;15.41;50.87
60427;BME280;46274;47.168;27.604;2023-06-04T04:59:33;100496.28;;;14.58;53.04
60427;BME280;46274;47.168;27.604;2023-06-04T05:05:35;100605.25;;;15.61;53.18
60427;BME280;46274;47.168;27.604;2023-06-04T05:11:37;100537.78;;;14.90;51.63
60427;BME280;46274;47.168;27.604;2023-06-04T05:17:39;100540.09;;;15.58;51.18
60427;BME280;46274;47.168;27.604;2023-06-04T05:23:44;100601.00;;;15.80;48.80
60427;BME280;46274;47.168;27.604;2023-06-04T05:29:51;100592.13;;;15.99;45.87
60427;BME280;46274;47.168;27.604;2023-06-04T05:35:54;100519.53;;;15.90;46.19
60427;BME280;46274;47.168;27.604;2023-06-04T05:41:59;100562.03;;;16.27;46.78
60427;BME280;46274;47.168;27.604;2023-06-04T05:48:06;100615.38;;;16.51;46.48
60427;BME280;46274;47.168;27.604;2023-06-04T05:54:08;100603.84;;;16.56;45.86
60427;BME280;46274;47.168;27.604;2023-06-04T06:00:11;100614.84;;;17.17;46.08
60427;BME280;46274;47.168;27.604;2023-06-04T06:06:15;100577.59;;;16.75;45.32
60427;BME280;46274;47.168;27.604;2023-06-04T06:12:19;100621.38;;;17.23;43.28
60427;BME280;46274;47.168;27.604;2023-06-04T06:18:23;100615.47;;;17.13;42.64
60427;BME280;46274;47.168;27.604;2023-06-04T06:24:26;100533.47;;;16.85;41.96
60427;BME280;46274;47.168;27.604;2023-06-04T06:30:30;100594.06;;;17.76;41.19
60427;BME280;46274;47.168;27.604;2023-06-04T06:36:39;100571.72;;;17.66;40.09
60427;BME280;46274;47.168;27.604;2023-06-04T06:42:42;100558.19;;;17.18;41.01
60427;BME280;46274;47.168;27.604;2023-06-04T06:48:54;100599.16;;;17.79;39.72
60427;BME280;46274;47.168;27.604;2023-06-04T06:54:58;100610.94;;;17.66;39.86
60427;BME280;46274;47.168;27.604;2023-06-04T07:01:02;100591.09;;;17.58;39.08
60427;BME280;46274;47.168;27.604;2023-06-04T07:07:09;100404.84;;;16.91;37.04
60427;BME280;46274;47.168;27.604;2023-06-04T07:13:18;100600.34;;;18.43;35.15
60427;BME280;46274;47.168;27.604;2023-06-04T07:19:24;100485.88;;;17.99;35.78
60427;BME280;46274;47.168;27.604;2023-06-04T07:25:34;100573.75;;;18.44;35.77
60427;BME280;46274;47.168;27.604;2023-06-04T07:31:36;100575.81;;;18.55;35.97
60427;BME280;46274;47.168;27.604;2023-06-04T07:37:38;100564.88;;;18.48;36.33
60427;BME280;46274;47.168;27.604;2023-06-04T07:43:42;100593.00;;;18.89;35.38
60427;BME280;46274;47.168;27.604;2023-06-04T07:49:45;100572.59;;;19.16;34.68
60427;BME280;46274;47.168;27.604;2023-06-04T07:56:03;100591.41;;;19.45;33.36
60427;BME280;46274;47.168;27.604;2023-06-04T08:02:09;100449.53;;;18.62;32.57
60427;BME280;46274;47.168;27.604;2023-06-04T08:08:11;100603.94;;;19.66;33.17
60427;BME280;46274;47.168;27.604;2023-06-04T08:14:14;100598.66;;;19.71;32.99
60427;BME280;46274;47.168;27.604;2023-06-04T08:20:39;100598.31;;;19.86;32.25
60427;BME280;46274;47.168;27.604;2023-06-04T08:26:48;100600.59;;;20.14;32.87
60427;BME280;46274;47.168;27.604;2023-06-04T08:32:56;100609.03;;;20.19;32.82
60427;BME280;46274;47.168;27.604;2023-06-04T08:39:01;100386.34;;;18.37;32.25
60427;BME280;46274;47.168;27.604;2023-06-04T08:45:03;100532.59;;;19.52;32.73
60427;BME280;46274;47.168;27.604;2023-06-04T08:51:13;100600.06;;;20.23;32.75
60427;BME280;46274;47.168;27.604;2023-06-04T08:57:17;100427.75;;;19.05;32.47
60427;BME280;46274;47.168;27.604;2023-06-04T09:03:20;100540.91;;;20.14;33.49
60427;BME280;46274;47.168;27.604;2023-06-04T09:09:38;100593.69;;;20.85;30.39
60427;BME280;46274;47.168;27.604;2023-06-04T09:15:42;100576.56;;;21.13;32.20
60427;BME280;46274;47.168;27.604;2023-06-04T09:21:56;100567.53;;;21.06;31.22
60427;BME280;46274;47.168;27.604;2023-06-04T09:28:05;100566.78;;;21.59;31.92
60427;BME280;46274;47.168;27.604;2023-06-04T09:34:10;100568.66;;;21.47;31.03
60427;BME280;46274;47.168;27.604;2023-06-04T09:40:21;100515.53;;;20.67;30.98
60427;BME280;46274;47.168;27.604;2023-06-04T09:46:27;100513.25;;;20.95;31.27
60427;BME280;46274;47.168;27.604;2023-06-04T09:52:43;100491.56;;;20.49;31.34
60427;BME280;46274;47.168;27.604;2023-06-04T09:58:55;100453.41;;;21.02;32.05
60427;BME280;46274;47.168;27.604;2023-06-04T10:05:04;100541.22;;;21.52;31.59
60427;BME280;46274;47.168;27.604;2023-06-04T10:11:34;100537.31;;;21.95;32.19
60427;BME280;46274;47.168;27.604;2023-06-04T10:17:49;100477.03;;;20.79;30.67
60427;BME280;46274;47.168;27.604;2023-06-04T10:24:01;100522.19;;;21.97;31.02
60427;BME280;46274;47.168;27.604;2023-06-04T10:30:05;100525.53;;;21.64;31.29
60427;BME280;46274;47.168;27.604;2023-06-04T10:36:41;100516.06;;;22.07;31.06
60427;BME280;46274;47.168;27.604;2023-06-04T10:42:44;100507.38;;;22.39;30.36
60427;BME280;46274;47.168;27.604;2023-06-04T10:48:50;100513.66;;;21.99;30.30
60427;BME280;46274;47.168;27.604;2023-06-04T10:55:03;100377.19;;;21.90;29.78
60427;BME280;46274;47.168;27.604;2023-06-04T11:01:11;100490.25;;;22.65;30.66
60427;BME280;46274;47.168;27.604;2023-06-04T11:07:17;100427.78;;;21.95;31.61
60427;BME280;46274;47.168;27.604;2023-06-04T11:13:30;100452.47;;;22.26;30.77
60427;BME280;46274;47.168;27.604;2023-06-04T11:19:39;100450.69;;;22.48;30.56
60427;BME280;46274;47.168;27.604;2023-06-04T11:25:52;100368.50;;;21.98;30.54
60427;BME280;46274;47.168;27.604;2023-06-04T11:31:57;100485.91;;;22.70;30.43
60427;BME280;46274;47.168;27.604;2023-06-04T11:38:17;100476.84;;;22.57;30.25
60427;BME280;46274;47.168;27.604;2023-06-04T11:44:31;100477.19;;;22.20;30.33
60427;BME280;46274;47.168;27.604;2023-06-04T11:50:38;100409.47;;;22.58;31.20
60427;BME280;46274;47.168;27.604;2023-06-04T11:56:49;100441.56;;;22.76;29.76
60427;BME280;46274;47.168;27.604;2023-06-04T12:03:06;100462.91;;;23.43;29.62
60427;BME280;46274;47.168;27.604;2023-06-04T12:09:20;100388.09;;;22.99;29.25
60427;BME280;46274;47.168;27.604;2023-06-04T12:15:30;100463.53;;;22.54;29.11
60427;BME280;46274;47.168;27.604;2023-06-04T12:21:32;100461.34;;;22.56;30.94
60427;BME280;46274;47.168;27.604;2023-06-04T12:27:58;100455.66;;;22.92;30.24
60427;BME280;46274;47.168;27.604;2023-06-04T12:34:07;100355.09;;;22.59;31.12
60427;BME280;46274;47.168;27.604;2023-06-04T12:40:09;100288.69;;;22.37;29.69
60427;BME280;46274;47.168;27.604;2023-06-04T12:46:34;100311.81;;;22.64;30.04
60427;BME280;46274;47.168;27.604;2023-06-04T12:52:38;100369.25;;;22.34;30.33
60427;BME280;46274;47.168;27.604;2023-06-04T12:58:50;100354.94;;;22.82;31.04
60427;BME280;46274;47.168;27.604;2023-06-04T13:04:52;100368.56;;;22.89;30.88
60427;BME280;46274;47.168;27.604;2023-06-04T13:11:07;100417.16;;;23.02;30.62
60427;BME280;46274;47.168;27.604;2023-06-04T13:17:12;100254.28;;;21.99;31.50
60427;BME280;46274;47.168;27.604;2023-06-04T13:23:26;100339.94;;;22.61;30.92
60427;BME280;46274;47.168;27.604;2023-06-04T13:29:50;100378.22;;;23.20;31.22
60427;BME280;46274;47.168;27.604;2023-06-04T13:35:55;100300.19;;;22.62;30.51
60427;BME280;46274;47.168;27.604;2023-06-04T13:42:02;100381.16;;;23.14;30.58
60427;BME280;46274;47.168;27.604;2023-06-04T13:48:05;100335.41;;;22.89;31.18
60427;BME280;46274;47.168;27.604;2023-06-04T13:54:12;100352.91;;;22.78;30.72
60427;BME280;46274;47.168;27.604;2023-06-04T14:00:19;100381.41;;;22.95;31.47
60427;BME280;46274;47.168;27.604;2023-06-04T14:06:24;100275.81;;;22.59;30.62
60427;BME280;46274;47.168;27.604;2023-06-04T14:12:44;100369.69;;;23.61;30.35
60427;BME280;46274;47.168;27.604;2023-06-04T14:18:48;100315.97;;;23.57;30.26
60427;BME280;46274;47.168;27.604;2023-06-04T14:24:50;100156.84;;;22.44;30.28
60427;BME280;46274;47.168;27.604;2023-06-04T14:30:55;100324.44;;;22.94;30.93
60427;BME280;46274;47.168;27.604;2023-06-04T14:37:03;100319.25;;;23.15;30.81
60427;BME280;46274;47.168;27.604;2023-06-04T14:43:07;100335.56;;;23.33;30.76
60427;BME280;46274;47.168;27.604;2023-06-04T14:49:19;100289.97;;;22.97;30.50
60427;BME280;46274;47.168;27.604;2023-06-04T14:55:21;100333.44;;;23.18;30.39
60427;BME280;46274;47.168;27.604;2023-06-04T15:01:24;100327.91;;;23.01;31.07
60427;BME280;46274;47.168;27.604;2023-06-04T15:07:26;100332.50;;;23.51;29.79
60427;BME280;46274;47.168;27.604;2023-06-04T15:13:49;100334.03;;;23.42;29.98
60427;BME280;46274;47.168;27.604;2023-06-04T15:20:04;100294.56;;;22.57;30.64
60427;BME280;46274;47.168;27.604;2023-06-04T15:26:07;100265.69;;;22.31;30.61
60427;BME280;46274;47.168;27.604;2023-06-04T15:32:23;100324.03;;;23.02;31.00
60427;BME280;46274;47.168;27.604;2023-06-04T15:38:27;100285.66;;;22.21;31.53
60427;BME280;46274;47.168;27.604;2023-06-04T15:44:35;100292.63;;;22.41;31.48
60427;BME280;46274;47.168;27.604;2023-06-04T15:50:39;100324.69;;;22.76;30.94
60427;BME280;46274;47.168;27.604;2023-06-04T15:56:41;100308.69;;;22.44;32.08
60427;BME280;46274;47.168;27.604;2023-06-04T16:02:50;100237.66;;;22.39;31.76
60427;BME280;46274;47.168;27.604;2023-06-04T16:08:57;100109.03;;;21.02;32.22
60427;BME280;46274;47.168;27.604;2023-06-04T16:15:02;100288.38;;;22.50;32.25
60427;BME280;46274;47.168;27.604;2023-06-04T16:21:12;100231.00;;;21.49;32.28
60427;BME280;46274;47.168;27.604;2023-06-04T16:27:22;100320.56;;;22.16;31.87
60427;BME280;46274;47.168;27.604;2023-06-04T16:33:31;100288.28;;;22.16;32.09
60427;BME280;46274;47.168;27.604;2023-06-04T16:39:34;100244.56;;;21.51;32.68
60427;BME280;46274;47.168;27.604;2023-06-04T16:45:37;100244.66;;;21.56;32.33
60427;BME280;46274;47.168;27.604;2023-06-04T16:51:52;100217.25;;;21.26;32.64
60427;BME280;46274;47.168;27.604;2023-06-04T16:57:55;100256.06;;;21.36;32.77
60427;BME280;46274;47.168;27.604;2023-06-04T17:03:59;100245.09;;;21.12;33.36
60427;BME280;46274;47.168;27.604;2023-06-04T17:10:01;100238.16;;;20.63;33.83
60427;BME280;46274;47.168;27.604;2023-06-04T17:16:05;100327.00;;;21.64;33.57
60427;BME280;46274;47.168;27.604;2023-06-04T17:22:09;100322.69;;;21.45;34.27
60427;BME280;46274;47.168;27.604;2023-06-04T17:28:12;100301.03;;;21.13;34.33
60427;BME280;46274;47.168;27.604;2023-06-04T17:34:15;100236.84;;;20.65;34.71
60427;BME280;46274;47.168;27.604;2023-06-04T17:40:19;100316.00;;;21.05;35.22
60427;BME280;46274;47.168;27.604;2023-06-04T17:46:21;100243.31;;;20.59;34.87
60427;BME280;46274;47.168;27.604;2023-06-04T17:52:24;100308.81;;;20.92;35.04
60427;BME280;46274;47.168;27.604;2023-06-04T17:58:28;100312.63;;;20.68;35.46
60427;BME280;46274;47.168;27.604;2023-06-04T18:04:37;100261.75;;;20.29;36.35
60427;BME280;46274;47.168;27.604;2023-06-04T18:10:47;100277.50;;;20.10;36.78
60427;BME280;46274;47.168;27.604;2023-06-04T18:16:52;100292.84;;;19.87;38.50
60427;BME280;46274;47.168;27.604;2023-06-04T18:22:55;100285.72;;;19.68;39.14
60427;BME280;46274;47.168;27.604;2023-06-04T18:29:01;100157.03;;;18.54;39.70
60427;BME280;46274;47.168;27.604;2023-06-04T18:35:06;100357.59;;;19.46;40.67
60427;BME280;46274;47.168;27.604;2023-06-04T18:41:10;100325.38;;;19.16;40.83
60427;BME280;46274;47.168;27.604;2023-06-04T18:47:21;100249.97;;;18.19;42.45
60427;BME280;46274;47.168;27.604;2023-06-04T18:53:32;100379.81;;;18.69;42.44
60427;BME280;46274;47.168;27.604;2023-06-04T18:59:38;100384.22;;;17.22;45.60
60427;BME280;46274;47.168;27.604;2023-06-04T19:05:40;100293.53;;;18.34;41.67
60427;BME280;46274;47.168;27.604;2023-06-04T19:11:44;100358.25;;;18.73;41.29
60427;BME280;46274;47.168;27.604;2023-06-04T19:17:52;100382.53;;;16.94;46.60
60427;BME280;46274;47.168;27.604;2023-06-04T19:24:01;100393.28;;;16.08;48.96
60427;BME280;46274;47.168;27.604;2023-06-04T19:30:06;100363.34;;;16.74;45.87
60427;BME280;46274;47.168;27.604;2023-06-04T19:36:09;100374.00;;;17.69;44.05
60427;BME280;46274;47.168;27.604;2023-06-04T19:42:11;100362.88;;;17.44;44.67
60427;BME280;46274;47.168;27.604;2023-06-04T19:48:16;100413.56;;;18.00;44.14
60427;BME280;46274;47.168;27.604;2023-06-04T19:54:18;100344.59;;;17.11;46.52
60427;BME280;46274;47.168;27.604;2023-06-04T20:00:21;100345.66;;;17.30;45.85
60427;BME280;46274;47.168;27.604;2023-06-04T20:06:23;100400.94;;;17.85;44.60
60427;BME280;46274;47.168;27.604;2023-06-04T20:12:26;100352.69;;;17.71;43.94
60427;BME280;46274;47.168;27.604;2023-06-04T20:18:28;100323.28;;;16.20;49.58
60427;BME280;46274;47.168;27.604;2023-06-04T20:24:41;100386.31;;;17.13;46.84
60427;BME280;46274;47.168;27.604;2023-06-04T20:30:46;100389.63;;;17.49;45.97
60427;BME280;46274;47.168;27.604;2023-06-04T20:36:48;100372.03;;;16.78;47.93
60427;BME280;46274;47.168;27.604;2023-06-04T20:42:55;100289.03;;;14.87;50.60
60427;BME280;46274;47.168;27.604;2023-06-04T20:49:00;100417.41;;;15.63;50.02
60427;BME280;46274;47.168;27.604;2023-06-04T20:55:04;100295.00;;;15.32;49.81
60427;BME280;46274;47.168;27.604;2023-06-04T21:01:06;100366.25;;;16.46;47.09
60427;BME280;46274;47.168;27.604;2023-06-04T21:07:09;100359.78;;;15.51;49.74
60427;BME280;46274;47.168;27.604;2023-06-04T21:13:17;100351.72;;;14.15;53.66
60427;BME280;46274;47.168;27.604;2023-06-04T21:19:21;100401.88;;;15.29;50.03
60427;BME280;46274;47.168;27.604;2023-06-04T21:25:23;100295.72;;;15.54;48.06
60427;BME280;46274;47.168;27.604;2023-06-04T21:31:26;100414.72;;;16.04;48.71
60427;BME280;46274;47.168;27.604;2023-06-04T21:37:28;100420.28;;;13.98;56.74
60427;BME280;46274;47.168;27.604;2023-06-04T21:43:31;100332.78;;;13.71;55.91
60427;BME280;46274;47.168;27.604;2023-06-04T21:49:34;100395.66;;;14.27;55.89
60427;BME280;46274;47.168;27.604;2023-06-04T21:55:37;100344.41;;;15.09;50.97
60427;BME280;46274;47.168;27.604;2023-06-04T22:01:41;100420.50;;;15.53;51.11
60427;BME280;46274;47.168;27.604;2023-06-04T22:07:45;100340.19;;;15.06;50.79
60427;BME280;46274;47.168;27.604;2023-06-04T22:13:49;100420.97;;;15.29;51.85
60427;BME280;46274;47.168;27.604;2023-06-04T22:19:53;100425.63;;;14.27;55.63
60427;BME280;46274;47.168;27.604;2023-06-04T22:25:55;100405.50;;;14.86;52.79
60427;BME280;46274;47.168;27.604;2023-06-04T22:31:59;100418.94;;;14.08;56.41
60427;BME280;46274;47.168;27.604;2023-06-04T22:38:02;100351.03;;;13.41;56.99
60427;BME280;46274;47.168;27.604;2023-06-04T22:44:09;100393.00;;;12.25;61.44
60427;BME280;46274;47.168;27.604;2023-06-04T22:50:13;100409.72;;;12.36;62.83
60427;BME280;46274;47.168;27.604;2023-06-04T22:56:16;100431.44;;;13.73;56.97
60427;BME280;46274;47.168;27.604;2023-06-04T23:02:18;100325.84;;;13.68;54.72
60427;BME280;46274;47.168;27.604;2023-06-04T23:08:21;100417.09;;;14.30;53.89
60427;BME280;46274;47.168;27.604;2023-06-04T23:14:24;100300.56;;;12.71;58.16
60427;BME280;46274;47.168;27.604;2023-06-04T23:20:28;100397.28;;;11.88;64.84
60427;BME280;46274;47.168;27.604;2023-06-04T23:26:32;100430.38;;;12.92;60.62
60427;BME280;46274;47.168;27.604;2023-06-04T23:32:35;100410.72;;;13.72;56.98
60427;BME280;46274;47.168;27.604;2023-06-04T23:38:38;100428.06;;;14.01;55.49
60427;BME280;46274;47.168;27.604;2023-06-04T23:44:41;100406.88;;;13.81;56.38
60427;BME280;46274;47.168;27.604;2023-06-04T23:50:44;100404.88;;;13.90;56.06
60427;BME280;46274;47.168;27.604;2023-06-04T23:56:47;100383.44;;;12.29;63.11
